sensor_id;sensor_type;location;lat;lon;timestamp;pressure;altitude;pressure_sealevel;temperature;humidity
12051;BME280;6086;43.546;26.474;2022-09-13T00:01:53;98766.28;;;15.84;100.00
12051;BME280;6086;43.546;26.474;2022-09-13T00:04:20;98774.38;;;15.68;100.00
12051;BME280;6086;43.546;26.474;2022-09-13T00:06:47;98776.25;;;15.67;100.00
12051;BME280;6086;43.546;26.474;2022-09-13T00:09:14;98789.34;;;15.59;100.00
12051;BME280;6086;43.546;26.474;2022-09-13T00:11:41;98782.91;;;15.48;100.00
12051;BME280;6086;43.546;26.474;2022-09-13T00:14:08;98784.88;;;15.53;100.00
12051;BME280;6086;43.546;26.474;2022-09-13T00:16:35;98778.59;;;15.48;100.00
12051;BME280;6086;43.546;26.474;2022-09-13T00:19:04;98789.53;;;15.41;100.00
12051;BME280;6086;43.546;26.474;2022-09-13T00:21:31;98790.09;;;15.43;100.00
12051;BME280;6086;43.546;26.474;2022-09-13T00:23:58;98788.13;;;15.39;100.00
12051;BME280;6086;43.546;26.474;2022-09-13T00:26:26;98797.16;;;15.33;100.00
12051;BME280;6086;43.546;26.474;2022-09-13T00:28:55;98774.91;;;15.26;100.00
12051;BME280;6086;43.546;26.474;2022-09-13T00:31:24;98779.69;;;15.24;100.00
12051;BME280;6086;43.546;26.474;2022-09-13T00:33:52;98774.34;;;15.12;100.00
12051;BME280;6086;43.546;26.474;2022-09-13T00:36:20;98776.44;;;15.10;100.00
12051;BME280;6086;43.546;26.474;2022-09-13T00:38:47;98777.06;;;15.12;100.00
12051;BME280;6086;43.546;26.474;2022-09-13T00:41:16;98776.91;;;15.19;100.00
12051;BME280;6086;43.546;26.474;2022-09-13T00:43:46;98774.56;;;15.22;100.00
12051;BME280;6086;43.546;26.474;2022-09-13T00:46:18;98773.50;;;15.23;100.00
12051;BME280;6086;43.546;26.474;2022-09-13T00:48:48;98770.78;;;15.23;100.00
12051;BME280;6086;43.546;26.474;2022-09-13T00:51:17;98775.22;;;15.29;100.00
12051;BME280;6086;43.546;26.474;2022-09-13T00:53:49;98775.47;;;15.28;100.00
12051;BME280;6086;43.546;26.474;2022-09-13T00:56:21;98773.22;;;15.25;100.00
12051;BME280;6086;43.546;26.474;2022-09-13T00:58:51;98775.13;;;15.24;100.00
12051;BME280;6086;43.546;26.474;2022-09-13T01:01:22;98778.63;;;15.25;100.00
12051;BME280;6086;43.546;26.474;2022-09-13T01:03:51;98779.47;;;15.25;100.00
12051;BME280;6086;43.546;26.474;2022-09-13T01:06:22;98777.59;;;15.26;100.00
12051;BME280;6086;43.546;26.474;2022-09-13T01:08:52;98773.34;;;15.30;100.00
12051;BME280;6086;43.546;26.474;2022-09-13T01:11:24;98773.84;;;15.27;100.00
12051;BME280;6086;43.546;26.474;2022-09-13T01:13:53;98779.22;;;15.27;100.00
12051;BME280;6086;43.546;26.474;2022-09-13T01:16:20;98775.63;;;15.21;100.00
12051;BME280;6086;43.546;26.474;2022-09-13T01:18:47;98779.75;;;15.12;100.00
12051;BME280;6086;43.546;26.474;2022-09-13T01:21:46;98775.72;;;15.15;100.00
12051;BME280;6086;43.546;26.474;2022-09-13T01:27:46;98779.84;;;15.06;100.00
12051;BME280;6086;43.546;26.474;2022-09-13T01:30:18;98783.97;;;15.08;100.00
12051;BME280;6086;43.546;26.474;2022-09-13T01:33:08;98781.75;;;15.05;100.00
12051;BME280;6086;43.546;26.474;2022-09-13T01:35:47;98775.78;;;15.03;100.00
12051;BME280;6086;43.546;26.474;2022-09-13T01:38:32;98773.47;;;14.84;100.00
12051;BME280;6086;43.546;26.474;2022-09-13T01:41:16;98778.88;;;14.84;100.00
12051;BME280;6086;43.546;26.474;2022-09-13T01:43:52;98774.88;;;14.86;100.00
12051;BME280;6086;43.546;26.474;2022-09-13T01:46:27;98774.19;;;14.79;100.00
12051;BME280;6086;43.546;26.474;2022-09-13T01:48:59;98775.13;;;14.73;100.00
12051;BME280;6086;43.546;26.474;2022-09-13T01:51:33;98781.44;;;14.67;100.00
12051;BME280;6086;43.546;26.474;2022-09-13T01:54:20;98777.94;;;14.67;100.00
12051;BME280;6086;43.546;26.474;2022-09-13T01:56:56;98779.94;;;14.60;100.00
12051;BME280;6086;43.546;26.474;2022-09-13T01:59:31;98780.16;;;14.58;100.00
12051;BME280;6086;43.546;26.474;2022-09-13T02:02:07;98775.47;;;14.54;100.00
12051;BME280;6086;43.546;26.474;2022-09-13T02:04:39;98769.16;;;14.48;100.00
12051;BME280;6086;43.546;26.474;2022-09-13T02:07:10;98769.41;;;14.47;100.00
12051;BME280;6086;43.546;26.474;2022-09-13T02:09:42;98765.31;;;14.44;100.00
12051;BME280;6086;43.546;26.474;2022-09-13T02:12:13;98762.03;;;14.42;100.00
12051;BME280;6086;43.546;26.474;2022-09-13T02:14:45;98755.25;;;14.40;100.00
12051;BME280;6086;43.546;26.474;2022-09-13T02:17:20;98758.16;;;14.38;100.00
12051;BME280;6086;43.546;26.474;2022-09-13T02:19:52;98761.09;;;14.37;100.00
12051;BME280;6086;43.546;26.474;2022-09-13T02:22:24;98752.19;;;14.25;100.00
12051;BME280;6086;43.546;26.474;2022-09-13T02:24:56;98755.72;;;14.25;100.00
12051;BME280;6086;43.546;26.474;2022-09-13T02:27:29;98753.38;;;14.17;100.00
12051;BME280;6086;43.546;26.474;2022-09-13T02:30:02;98751.91;;;14.15;100.00
12051;BME280;6086;43.546;26.474;2022-09-13T02:32:34;98748.06;;;14.11;100.00
12051;BME280;6086;43.546;26.474;2022-09-13T02:35:05;98747.94;;;14.06;100.00
12051;BME280;6086;43.546;26.474;2022-09-13T02:37:36;98750.28;;;14.02;100.00
12051;BME280;6086;43.546;26.474;2022-09-13T02:40:08;98745.47;;;13.93;100.00
12051;BME280;6086;43.546;26.474;2022-09-13T02:42:40;98746.50;;;13.92;100.00
12051;BME280;6086;43.546;26.474;2022-09-13T02:45:09;98746.03;;;13.83;100.00
12051;BME280;6086;43.546;26.474;2022-09-13T02:47:43;98751.38;;;13.72;100.00
12051;BME280;6086;43.546;26.474;2022-09-13T02:50:30;98755.97;;;13.71;100.00
12051;BME280;6086;43.546;26.474;2022-09-13T02:53:03;98754.66;;;13.62;100.00
12051;BME280;6086;43.546;26.474;2022-09-13T02:55:41;98751.13;;;13.62;100.00
12051;BME280;6086;43.546;26.474;2022-09-13T02:58:13;98752.19;;;13.61;100.00
12051;BME280;6086;43.546;26.474;2022-09-13T03:00:45;98748.06;;;13.58;100.00
12051;BME280;6086;43.546;26.474;2022-09-13T03:03:15;98747.38;;;13.63;100.00
12051;BME280;6086;43.546;26.474;2022-09-13T03:05:43;98754.63;;;13.51;100.00
12051;BME280;6086;43.546;26.474;2022-09-13T03:08:11;98752.59;;;13.46;100.00
12051;BME280;6086;43.546;26.474;2022-09-13T03:10:47;98758.91;;;13.40;100.00
12051;BME280;6086;43.546;26.474;2022-09-13T03:13:30;98759.47;;;13.42;100.00
12051;BME280;6086;43.546;26.474;2022-09-13T03:16:05;98752.16;;;13.49;100.00
12051;BME280;6086;43.546;26.474;2022-09-13T03:18:48;98756.66;;;13.37;100.00
12051;BME280;6086;43.546;26.474;2022-09-13T03:21:32;98756.16;;;13.29;100.00
12051;BME280;6086;43.546;26.474;2022-09-13T03:24:08;98753.63;;;13.34;100.00
12051;BME280;6086;43.546;26.474;2022-09-13T03:26:51;98751.41;;;13.42;100.00
12051;BME280;6086;43.546;26.474;2022-09-13T03:29:26;98759.03;;;13.45;100.00
12051;BME280;6086;43.546;26.474;2022-09-13T03:32:11;98759.16;;;13.50;100.00
12051;BME280;6086;43.546;26.474;2022-09-13T03:34:47;98766.53;;;13.55;100.00
12051;BME280;6086;43.546;26.474;2022-09-13T03:37:23;98769.75;;;13.63;100.00
12051;BME280;6086;43.546;26.474;2022-09-13T03:39:55;98761.19;;;13.66;100.00
12051;BME280;6086;43.546;26.474;2022-09-13T03:42:30;98769.75;;;13.75;100.00
12051;BME280;6086;43.546;26.474;2022-09-13T03:44:59;98763.34;;;13.76;100.00
12051;BME280;6086;43.546;26.474;2022-09-13T03:47:30;98761.47;;;13.76;100.00
12051;BME280;6086;43.546;26.474;2022-09-13T03:50:00;98763.69;;;13.79;100.00
12051;BME280;6086;43.546;26.474;2022-09-13T03:52:28;98760.19;;;13.79;100.00
12051;BME280;6086;43.546;26.474;2022-09-13T03:54:56;98766.47;;;13.73;100.00
12051;BME280;6086;43.546;26.474;2022-09-13T03:57:24;98773.44;;;13.51;100.00
12051;BME280;6086;43.546;26.474;2022-09-13T03:59:52;98777.88;;;13.57;100.00
12051;BME280;6086;43.546;26.474;2022-09-13T04:02:20;98772.38;;;13.52;100.00
12051;BME280;6086;43.546;26.474;2022-09-13T04:04:47;98781.72;;;13.49;100.00
12051;BME280;6086;43.546;26.474;2022-09-13T04:07:17;98773.28;;;13.46;100.00
12051;BME280;6086;43.546;26.474;2022-09-13T04:09:45;98776.56;;;13.48;100.00
12051;BME280;6086;43.546;26.474;2022-09-13T04:12:12;98776.22;;;13.44;100.00
12051;BME280;6086;43.546;26.474;2022-09-13T04:14:40;98776.44;;;13.43;100.00
12051;BME280;6086;43.546;26.474;2022-09-13T04:17:07;98776.94;;;13.51;100.00
12051;BME280;6086;43.546;26.474;2022-09-13T04:19:34;98767.59;;;13.54;100.00
12051;BME280;6086;43.546;26.474;2022-09-13T04:22:01;98774.50;;;13.61;100.00
12051;BME280;6086;43.546;26.474;2022-09-13T04:24:30;98769.97;;;13.62;100.00
12051;BME280;6086;43.546;26.474;2022-09-13T04:26:57;98768.38;;;13.72;100.00
12051;BME280;6086;43.546;26.474;2022-09-13T04:29:25;98771.84;;;13.73;100.00
12051;BME280;6086;43.546;26.474;2022-09-13T04:31:53;98775.25;;;13.68;100.00
12051;BME280;6086;43.546;26.474;2022-09-13T04:34:20;98778.44;;;13.77;100.00
12051;BME280;6086;43.546;26.474;2022-09-13T04:36:48;98775.50;;;13.78;100.00
12051;BME280;6086;43.546;26.474;2022-09-13T04:39:15;98776.47;;;13.84;100.00
12051;BME280;6086;43.546;26.474;2022-09-13T04:41:47;98777.63;;;13.88;100.00
12051;BME280;6086;43.546;26.474;2022-09-13T04:44:16;98780.56;;;13.86;100.00
12051;BME280;6086;43.546;26.474;2022-09-13T04:46:46;98773.31;;;13.87;100.00
12051;BME280;6086;43.546;26.474;2022-09-13T04:49:14;98782.47;;;13.97;100.00
12051;BME280;6086;43.546;26.474;2022-09-13T04:51:41;98781.84;;;13.95;100.00
12051;BME280;6086;43.546;26.474;2022-09-13T04:54:09;98794.63;;;13.88;100.00
12051;BME280;6086;43.546;26.474;2022-09-13T04:56:36;98792.50;;;13.90;100.00
12051;BME280;6086;43.546;26.474;2022-09-13T04:59:04;98794.63;;;14.00;100.00
12051;BME280;6086;43.546;26.474;2022-09-13T05:01:32;98794.16;;;14.14;100.00
12051;BME280;6086;43.546;26.474;2022-09-13T05:03:59;98791.88;;;14.18;100.00
12051;BME280;6086;43.546;26.474;2022-09-13T05:06:26;98802.31;;;14.26;100.00
12051;BME280;6086;43.546;26.474;2022-09-13T05:08:55;98801.38;;;14.32;100.00
12051;BME280;6086;43.546;26.474;2022-09-13T05:11:22;98806.06;;;14.36;100.00
12051;BME280;6086;43.546;26.474;2022-09-13T05:13:50;98812.16;;;14.43;100.00
12051;BME280;6086;43.546;26.474;2022-09-13T05:16:21;98811.91;;;14.45;100.00
12051;BME280;6086;43.546;26.474;2022-09-13T05:18:48;98816.59;;;14.49;100.00
12051;BME280;6086;43.546;26.474;2022-09-13T05:21:16;98822.25;;;14.48;100.00
12051;BME280;6086;43.546;26.474;2022-09-13T05:23:44;98819.28;;;14.49;100.00
12051;BME280;6086;43.546;26.474;2022-09-13T05:26:14;98823.19;;;14.53;100.00
12051;BME280;6086;43.546;26.474;2022-09-13T05:28:41;98821.66;;;14.57;100.00
12051;BME280;6086;43.546;26.474;2022-09-13T05:31:12;98824.13;;;14.70;100.00
12051;BME280;6086;43.546;26.474;2022-09-13T05:33:42;98819.66;;;14.76;100.00
12051;BME280;6086;43.546;26.474;2022-09-13T05:36:10;98823.75;;;14.90;100.00
12051;BME280;6086;43.546;26.474;2022-09-13T05:38:37;98816.59;;;14.95;100.00
12051;BME280;6086;43.546;26.474;2022-09-13T05:41:04;98823.50;;;15.03;100.00
12051;BME280;6086;43.546;26.474;2022-09-13T05:43:32;98825.91;;;15.16;100.00
12051;BME280;6086;43.546;26.474;2022-09-13T05:46:01;98815.25;;;15.32;100.00
12051;BME280;6086;43.546;26.474;2022-09-13T05:48:29;98814.38;;;15.43;100.00
12051;BME280;6086;43.546;26.474;2022-09-13T05:51:03;98827.94;;;15.59;100.00
12051;BME280;6086;43.546;26.474;2022-09-13T05:53:30;98818.88;;;15.65;100.00
12051;BME280;6086;43.546;26.474;2022-09-13T05:55:57;98822.03;;;15.74;100.00
12051;BME280;6086;43.546;26.474;2022-09-13T05:58:24;98820.22;;;15.79;100.00
12051;BME280;6086;43.546;26.474;2022-09-13T06:00:52;98826.59;;;15.90;100.00
12051;BME280;6086;43.546;26.474;2022-09-13T06:03:20;98828.50;;;15.89;100.00
12051;BME280;6086;43.546;26.474;2022-09-13T06:05:48;98828.91;;;15.98;100.00
12051;BME280;6086;43.546;26.474;2022-09-13T06:08:17;98830.75;;;16.09;100.00
12051;BME280;6086;43.546;26.474;2022-09-13T06:10:52;98840.34;;;16.16;100.00
12051;BME280;6086;43.546;26.474;2022-09-13T06:13:19;98837.06;;;16.31;100.00
12051;BME280;6086;43.546;26.474;2022-09-13T06:15:46;98838.03;;;16.25;100.00
12051;BME280;6086;43.546;26.474;2022-09-13T06:18:13;98840.53;;;16.43;100.00
12051;BME280;6086;43.546;26.474;2022-09-13T06:20:41;98846.59;;;16.50;100.00
12051;BME280;6086;43.546;26.474;2022-09-13T06:23:11;98855.47;;;16.62;100.00
12051;BME280;6086;43.546;26.474;2022-09-13T06:25:40;98850.53;;;16.59;100.00
12051;BME280;6086;43.546;26.474;2022-09-13T06:28:08;98847.91;;;16.47;100.00
12051;BME280;6086;43.546;26.474;2022-09-13T06:30:35;98859.22;;;16.61;100.00
12051;BME280;6086;43.546;26.474;2022-09-13T06:33:02;98854.38;;;16.79;100.00
12051;BME280;6086;43.546;26.474;2022-09-13T06:35:29;98865.53;;;16.66;100.00
12051;BME280;6086;43.546;26.474;2022-09-13T06:37:56;98865.41;;;16.78;100.00
12051;BME280;6086;43.546;26.474;2022-09-13T06:40:24;98852.56;;;16.85;100.00
12051;BME280;6086;43.546;26.474;2022-09-13T06:42:52;98866.50;;;16.93;100.00
12051;BME280;6086;43.546;26.474;2022-09-13T06:45:19;98872.59;;;17.05;100.00
12051;BME280;6086;43.546;26.474;2022-09-13T06:47:46;98869.84;;;17.22;100.00
12051;BME280;6086;43.546;26.474;2022-09-13T06:50:13;98872.22;;;17.35;100.00
12051;BME280;6086;43.546;26.474;2022-09-13T06:52:46;98874.50;;;17.26;100.00
12051;BME280;6086;43.546;26.474;2022-09-13T06:55:13;98890.28;;;17.29;100.00
12051;BME280;6086;43.546;26.474;2022-09-13T06:57:40;98881.56;;;17.44;100.00
12051;BME280;6086;43.546;26.474;2022-09-13T07:00:10;98888.41;;;17.51;100.00
12051;BME280;6086;43.546;26.474;2022-09-13T07:02:37;98896.81;;;17.50;100.00
12051;BME280;6086;43.546;26.474;2022-09-13T07:05:05;98897.75;;;17.60;100.00
12051;BME280;6086;43.546;26.474;2022-09-13T07:07:32;98895.66;;;17.67;100.00
12051;BME280;6086;43.546;26.474;2022-09-13T07:09:59;98904.53;;;17.84;100.00
12051;BME280;6086;43.546;26.474;2022-09-13T07:12:26;98895.41;;;17.90;100.00
12051;BME280;6086;43.546;26.474;2022-09-13T07:14:53;98900.88;;;17.95;100.00
12051;BME280;6086;43.546;26.474;2022-09-13T07:17:22;98905.63;;;18.10;100.00
12051;BME280;6086;43.546;26.474;2022-09-13T07:19:49;98904.97;;;18.24;100.00
12051;BME280;6086;43.546;26.474;2022-09-13T07:22:16;98903.28;;;18.40;100.00
12051;BME280;6086;43.546;26.474;2022-09-13T07:24:43;98908.88;;;18.33;100.00
12051;BME280;6086;43.546;26.474;2022-09-13T07:27:10;98905.75;;;18.46;100.00
12051;BME280;6086;43.546;26.474;2022-09-13T07:29:41;98908.00;;;18.54;100.00
12051;BME280;6086;43.546;26.474;2022-09-13T07:32:08;98901.06;;;18.68;100.00
12051;BME280;6086;43.546;26.474;2022-09-13T07:34:37;98914.13;;;18.71;100.00
12051;BME280;6086;43.546;26.474;2022-09-13T07:37:04;98903.59;;;18.79;100.00
12051;BME280;6086;43.546;26.474;2022-09-13T07:39:30;98913.69;;;18.84;100.00
12051;BME280;6086;43.546;26.474;2022-09-13T07:41:57;98913.13;;;18.82;100.00
12051;BME280;6086;43.546;26.474;2022-09-13T07:44:24;98921.03;;;18.88;100.00
12051;BME280;6086;43.546;26.474;2022-09-13T07:46:51;98913.44;;;18.85;100.00
12051;BME280;6086;43.546;26.474;2022-09-13T07:49:18;98914.34;;;19.01;100.00
12051;BME280;6086;43.546;26.474;2022-09-13T07:51:47;98908.69;;;19.02;100.00
12051;BME280;6086;43.546;26.474;2022-09-13T07:54:16;98916.72;;;19.24;100.00
12051;BME280;6086;43.546;26.474;2022-09-13T07:56:44;98913.78;;;19.30;100.00
12051;BME280;6086;43.546;26.474;2022-09-13T07:59:14;98920.13;;;19.51;100.00
12051;BME280;6086;43.546;26.474;2022-09-13T08:01:43;98918.47;;;19.45;100.00
12051;BME280;6086;43.546;26.474;2022-09-13T08:04:12;98920.94;;;19.46;100.00
12051;BME280;6086;43.546;26.474;2022-09-13T08:06:40;98916.09;;;19.53;100.00
12051;BME280;6086;43.546;26.474;2022-09-13T08:09:09;98911.19;;;19.55;100.00
12051;BME280;6086;43.546;26.474;2022-09-13T08:11:38;98922.94;;;19.71;100.00
12051;BME280;6086;43.546;26.474;2022-09-13T08:14:06;98919.06;;;19.52;100.00
12051;BME280;6086;43.546;26.474;2022-09-13T08:16:33;98907.66;;;19.55;100.00
12051;BME280;6086;43.546;26.474;2022-09-13T08:19:03;98903.06;;;19.60;100.00
12051;BME280;6086;43.546;26.474;2022-09-13T08:21:35;98908.84;;;19.79;100.00
12051;BME280;6086;43.546;26.474;2022-09-13T08:24:03;98905.91;;;19.90;100.00
12051;BME280;6086;43.546;26.474;2022-09-13T08:26:32;98893.13;;;19.91;95.60
12051;BME280;6086;43.546;26.474;2022-09-13T08:29:02;98904.56;;;19.98;99.15
12051;BME280;6086;43.546;26.474;2022-09-13T08:31:30;98890.50;;;20.11;100.00
12051;BME280;6086;43.546;26.474;2022-09-13T08:33:57;98881.84;;;20.29;100.00
12051;BME280;6086;43.546;26.474;2022-09-13T08:36:25;98892.72;;;20.29;90.73
12051;BME280;6086;43.546;26.474;2022-09-13T08:38:53;98885.38;;;20.24;89.46
12051;BME280;6086;43.546;26.474;2022-09-13T08:41:53;98887.00;;;20.30;91.44
12051;BME280;6086;43.546;26.474;2022-09-13T08:44:27;98890.03;;;20.49;97.48
12051;BME280;6086;43.546;26.474;2022-09-13T08:47:01;98884.59;;;20.54;88.85
12051;BME280;6086;43.546;26.474;2022-09-13T08:49:32;98884.31;;;20.65;93.70
12051;BME280;6086;43.546;26.474;2022-09-13T08:52:09;98881.31;;;20.57;83.13
12051;BME280;6086;43.546;26.474;2022-09-13T08:54:42;98875.91;;;20.72;85.09
12051;BME280;6086;43.546;26.474;2022-09-13T08:57:14;98879.44;;;20.77;81.78
12051;BME280;6086;43.546;26.474;2022-09-13T08:59:49;98871.53;;;20.61;80.63
12051;BME280;6086;43.546;26.474;2022-09-13T09:02:34;98879.69;;;20.76;84.46
12051;BME280;6086;43.546;26.474;2022-09-13T09:05:13;98885.44;;;20.94;78.94
12051;BME280;6086;43.546;26.474;2022-09-13T09:07:45;98881.84;;;21.14;88.49
12051;BME280;6086;43.546;26.474;2022-09-13T09:10:16;98887.59;;;21.12;81.77
12051;BME280;6086;43.546;26.474;2022-09-13T09:12:48;98888.41;;;21.03;73.52
12051;BME280;6086;43.546;26.474;2022-09-13T09:15:19;98886.75;;;21.17;77.74
12051;BME280;6086;43.546;26.474;2022-09-13T09:17:52;98888.66;;;21.21;69.19
12051;BME280;6086;43.546;26.474;2022-09-13T09:20:25;98878.59;;;21.17;74.25
12051;BME280;6086;43.546;26.474;2022-09-13T09:22:53;98876.97;;;20.96;77.94
12051;BME280;6086;43.546;26.474;2022-09-13T09:25:23;98878.09;;;20.90;75.45
12051;BME280;6086;43.546;26.474;2022-09-13T09:27:52;98887.03;;;20.75;72.45
12051;BME280;6086;43.546;26.474;2022-09-13T09:30:19;98876.97;;;20.81;72.56
12051;BME280;6086;43.546;26.474;2022-09-13T09:32:55;98872.88;;;20.83;75.89
12051;BME280;6086;43.546;26.474;2022-09-13T09:35:43;98863.63;;;20.74;75.08
12051;BME280;6086;43.546;26.474;2022-09-13T09:38:31;98872.09;;;20.93;71.49
12051;BME280;6086;43.546;26.474;2022-09-13T09:41:00;98864.16;;;21.01;71.78
12051;BME280;6086;43.546;26.474;2022-09-13T09:43:34;98862.25;;;21.17;77.87
12051;BME280;6086;43.546;26.474;2022-09-13T09:46:07;98867.38;;;21.28;71.94
12051;BME280;6086;43.546;26.474;2022-09-13T09:48:40;98873.66;;;21.24;69.16
12051;BME280;6086;43.546;26.474;2022-09-13T09:51:11;98862.41;;;21.55;75.09
12051;BME280;6086;43.546;26.474;2022-09-13T09:53:42;98866.97;;;21.75;74.15
12051;BME280;6086;43.546;26.474;2022-09-13T09:56:19;98859.88;;;21.74;69.74
12051;BME280;6086;43.546;26.474;2022-09-13T09:58:50;98859.09;;;21.68;71.71
12051;BME280;6086;43.546;26.474;2022-09-13T10:01:21;98868.47;;;21.27;71.27
12051;BME280;6086;43.546;26.474;2022-09-13T10:04:03;98863.34;;;21.11;75.38
12051;BME280;6086;43.546;26.474;2022-09-13T10:06:34;98867.44;;;20.83;73.02
12051;BME280;6086;43.546;26.474;2022-09-13T10:09:03;98869.63;;;20.71;76.49
12051;BME280;6086;43.546;26.474;2022-09-13T10:11:42;98864.75;;;20.88;73.88
12051;BME280;6086;43.546;26.474;2022-09-13T10:14:29;98861.75;;;21.00;71.15
12051;BME280;6086;43.546;26.474;2022-09-13T10:17:17;98860.81;;;21.34;78.24
12051;BME280;6086;43.546;26.474;2022-09-13T10:19:54;98859.47;;;21.32;65.34
12051;BME280;6086;43.546;26.474;2022-09-13T10:22:23;98855.41;;;21.29;74.22
12051;BME280;6086;43.546;26.474;2022-09-13T10:24:51;98855.34;;;21.44;73.09
12051;BME280;6086;43.546;26.474;2022-09-13T10:27:31;98859.19;;;21.33;68.70
12051;BME280;6086;43.546;26.474;2022-09-13T10:30:04;98852.69;;;21.24;74.03
12051;BME280;6086;43.546;26.474;2022-09-13T10:32:32;98856.97;;;21.50;75.29
12051;BME280;6086;43.546;26.474;2022-09-13T10:35:15;98841.13;;;21.67;72.85
12051;BME280;6086;43.546;26.474;2022-09-13T10:37:44;98851.69;;;21.79;66.36
12051;BME280;6086;43.546;26.474;2022-09-13T10:40:18;98848.63;;;21.90;68.98
12051;BME280;6086;43.546;26.474;2022-09-13T10:42:52;98843.72;;;21.92;66.10
12051;BME280;6086;43.546;26.474;2022-09-13T10:45:25;98843.47;;;21.84;65.03
12051;BME280;6086;43.546;26.474;2022-09-13T10:47:54;98832.19;;;22.05;69.73
12051;BME280;6086;43.546;26.474;2022-09-13T10:50:23;98833.50;;;22.13;66.73
12051;BME280;6086;43.546;26.474;2022-09-13T10:52:51;98833.56;;;22.03;63.50
12051;BME280;6086;43.546;26.474;2022-09-13T10:55:30;98832.41;;;21.65;66.57
12051;BME280;6086;43.546;26.474;2022-09-13T10:58:15;98827.88;;;21.36;66.42
12051;BME280;6086;43.546;26.474;2022-09-13T11:01:24;98825.38;;;21.49;58.14
12051;BME280;6086;43.546;26.474;2022-09-13T11:04:36;98833.47;;;21.69;67.79
12051;BME280;6086;43.546;26.474;2022-09-13T11:07:23;98822.19;;;21.91;66.70
12051;BME280;6086;43.546;26.474;2022-09-13T11:09:56;98821.31;;;22.00;63.82
12051;BME280;6086;43.546;26.474;2022-09-13T11:12:31;98818.53;;;22.05;58.52
12051;BME280;6086;43.546;26.474;2022-09-13T11:15:06;98821.94;;;22.25;65.52
12051;BME280;6086;43.546;26.474;2022-09-13T11:18:04;98814.97;;;22.10;56.12
12051;BME280;6086;43.546;26.474;2022-09-13T11:20:40;98823.28;;;21.90;57.16
12051;BME280;6086;43.546;26.474;2022-09-13T11:26:26;98814.72;;;22.06;57.88
12051;BME280;6086;43.546;26.474;2022-09-13T11:29:04;98813.41;;;21.99;59.77
12051;BME280;6086;43.546;26.474;2022-09-13T11:31:41;98807.31;;;22.12;60.61
12051;BME280;6086;43.546;26.474;2022-09-13T11:34:24;98809.06;;;22.31;61.86
12051;BME280;6086;43.546;26.474;2022-09-13T11:37:22;98807.06;;;22.46;60.85
12051;BME280;6086;43.546;26.474;2022-09-13T11:40:00;98813.09;;;22.43;57.58
12051;BME280;6086;43.546;26.474;2022-09-13T11:42:42;98807.91;;;22.42;57.28
12051;BME280;6086;43.546;26.474;2022-09-13T11:45:21;98810.09;;;22.40;58.38
12051;BME280;6086;43.546;26.474;2022-09-13T11:50:56;98808.94;;;22.51;61.22
12051;BME280;6086;43.546;26.474;2022-09-13T11:53:46;98807.16;;;22.70;58.26
12051;BME280;6086;43.546;26.474;2022-09-13T11:56:19;98804.25;;;22.85;59.93
12051;BME280;6086;43.546;26.474;2022-09-13T11:58:50;98803.47;;;22.84;54.79
12051;BME280;6086;43.546;26.474;2022-09-13T12:01:21;98805.84;;;22.62;55.81
12051;BME280;6086;43.546;26.474;2022-09-13T12:03:56;98802.75;;;22.69;53.00
12051;BME280;6086;43.546;26.474;2022-09-13T12:06:29;98807.50;;;22.87;56.39
12051;BME280;6086;43.546;26.474;2022-09-13T12:09:01;98802.97;;;23.06;55.83
12051;BME280;6086;43.546;26.474;2022-09-13T12:11:32;98803.41;;;23.18;51.68
12051;BME280;6086;43.546;26.474;2022-09-13T12:14:02;98799.34;;;23.10;53.46
12051;BME280;6086;43.546;26.474;2022-09-13T12:16:33;98809.09;;;23.21;53.29
12051;BME280;6086;43.546;26.474;2022-09-13T12:19:04;98810.13;;;23.25;49.97
12051;BME280;6086;43.546;26.474;2022-09-13T12:21:37;98803.97;;;23.38;55.40
12051;BME280;6086;43.546;26.474;2022-09-13T12:24:10;98805.25;;;23.22;49.65
12051;BME280;6086;43.546;26.474;2022-09-13T12:26:43;98808.06;;;23.12;53.99
12051;BME280;6086;43.546;26.474;2022-09-13T12:29:16;98802.53;;;23.22;53.64
12051;BME280;6086;43.546;26.474;2022-09-13T12:31:44;98810.81;;;23.12;55.87
12051;BME280;6086;43.546;26.474;2022-09-13T12:34:17;98804.72;;;22.92;55.56
12051;BME280;6086;43.546;26.474;2022-09-13T12:37:09;98805.09;;;22.85;54.44
12051;BME280;6086;43.546;26.474;2022-09-13T12:39:56;98803.03;;;22.96;53.74
12051;BME280;6086;43.546;26.474;2022-09-13T12:45:50;98787.06;;;22.84;49.16
12051;BME280;6086;43.546;26.474;2022-09-13T12:48:32;98789.22;;;23.11;50.72
12051;BME280;6086;43.546;26.474;2022-09-13T12:51:07;98786.81;;;23.09;53.07
12051;BME280;6086;43.546;26.474;2022-09-13T12:57:00;98796.28;;;22.60;51.52
12051;BME280;6086;43.546;26.474;2022-09-13T13:00:00;98786.16;;;22.65;55.52
12051;BME280;6086;43.546;26.474;2022-09-13T13:02:31;98786.06;;;22.75;51.41
12051;BME280;6086;43.546;26.474;2022-09-13T13:05:03;98785.22;;;22.80;52.66
12051;BME280;6086;43.546;26.474;2022-09-13T13:07:33;98787.31;;;22.59;53.08
12051;BME280;6086;43.546;26.474;2022-09-13T13:10:03;98782.22;;;22.48;53.58
12051;BME280;6086;43.546;26.474;2022-09-13T13:12:33;98785.28;;;22.41;54.68
12051;BME280;6086;43.546;26.474;2022-09-13T13:15:03;98786.22;;;22.60;54.79
12051;BME280;6086;43.546;26.474;2022-09-13T13:17:41;98790.13;;;22.78;51.78
12051;BME280;6086;43.546;26.474;2022-09-13T13:21:01;98788.00;;;22.98;50.05
12051;BME280;6086;43.546;26.474;2022-09-13T13:23:31;98791.22;;;23.05;50.54
12051;BME280;6086;43.546;26.474;2022-09-13T13:26:08;98796.31;;;22.88;49.73
12051;BME280;6086;43.546;26.474;2022-09-13T13:31:43;98780.16;;;22.92;46.71
12051;BME280;6086;43.546;26.474;2022-09-13T13:34:33;98792.03;;;23.06;48.27
12051;BME280;6086;43.546;26.474;2022-09-13T13:37:03;98788.31;;;22.97;48.12
12051;BME280;6086;43.546;26.474;2022-09-13T13:39:40;98787.09;;;22.79;50.32